createdAt,value
2024-02-02T00:02:06.183Z,103003.09
2024-02-02T00:04:32.805Z,103009.31
2024-02-02T00:06:59.301Z,102998.00
2024-02-02T00:09:25.790Z,103004.78
2024-02-02T00:11:52.328Z,102998.59
2024-02-02T00:14:18.791Z,102981.25
2024-02-02T00:16:45.447Z,102982.53
2024-02-02T00:19:12.058Z,102992.38
2024-02-02T00:21:38.586Z,102991.97
2024-02-02T00:24:05.264Z,102989.28
2024-02-02T00:26:31.815Z,102989.56
2024-02-02T00:28:58.296Z,102983.59
2024-02-02T00:31:24.824Z,102963.97
2024-02-02T00:33:51.654Z,102973.94
2024-02-02T00:36:18.347Z,102984.13
2024-02-02T00:38:44.907Z,102995.59
2024-02-02T00:41:11.372Z,102998.56
2024-02-02T00:43:37.842Z,102997.94
2024-02-02T00:46:04.471Z,102970.72
2024-02-02T00:48:31.042Z,103003.31
2024-02-02T00:50:57.575Z,102994.75
2024-02-02T00:53:24.048Z,102996.03
2024-02-02T00:55:50.515Z,103001.38
2024-02-02T00:58:17.089Z,103000.81
2024-02-02T01:00:43.645Z,102994.84
2024-02-02T01:03:10.236Z,102982.94
2024-02-02T01:05:36.757Z,102983.50
2024-02-02T01:08:03.449Z,102976.19
2024-02-02T01:10:30.268Z,102944.81
2024-02-02T01:12:56.916Z,102961.19
2024-02-02T01:15:23.885Z,102931.16
2024-02-02T01:17:50.480Z,102960.44
2024-02-02T01:20:17.199Z,102945.84
2024-02-02T01:22:43.692Z,102943.91
2024-02-02T01:25:14.963Z,102937.88
2024-02-02T01:27:44.472Z,102939.75
2024-02-02T01:30:14.442Z,102941.06
2024-02-02T01:32:41.157Z,102938.03
2024-02-02T01:35:08.524Z,102947.56
2024-02-02T01:37:35.089Z,102949.97
2024-02-02T01:40:01.687Z,102946.91
2024-02-02T01:42:28.283Z,102941.66
2024-02-02T01:44:54.880Z,102936.66
2024-02-02T01:47:21.396Z,102942.38
2024-02-02T01:49:49.464Z,102927.44
2024-02-02T01:52:16.232Z,102930.34
2024-02-02T01:54:42.870Z,102921.16
2024-02-02T01:57:09.452Z,102928.75
2024-02-02T01:59:36.012Z,102917.97
2024-02-02T02:02:02.543Z,102924.81
2024-02-02T02:04:30.104Z,102932.63
2024-02-02T02:06:57.157Z,102931.13
2024-02-02T02:09:23.776Z,102925.25
2024-02-02T02:11:50.410Z,102919.69
2024-02-02T02:14:16.914Z,102926.94
2024-02-02T02:16:43.903Z,102917.53
2024-02-02T02:19:15.748Z,102893.22
2024-02-02T02:21:42.709Z,102893.28
2024-02-02T02:24:10.634Z,102887.41
2024-02-02T02:26:37.699Z,102874.38
2024-02-02T02:29:04.610Z,102866.50
2024-02-02T02:31:31.342Z,102876.03
2024-02-02T02:33:58.045Z,102876.03
2024-02-02T02:36:25.108Z,102873.19
2024-02-02T02:38:52.005Z,102867.66
2024-02-02T02:41:18.723Z,102865.78
2024-02-02T02:43:45.293Z,102865.47
2024-02-02T02:46:12.693Z,102871.66
2024-02-02T02:48:39.506Z,102841.50
2024-02-02T02:51:06.357Z,102866.59
2024-02-02T02:53:32.860Z,102863.91
2024-02-02T02:55:59.345Z,102865.09
2024-02-02T02:58:25.848Z,102873.78
2024-02-02T03:00:53.997Z,102854.16
2024-02-02T03:03:20.563Z,102871.59
2024-02-02T03:05:48.102Z,102874.03
2024-02-02T03:08:14.715Z,102880.34
2024-02-02T03:10:42.956Z,102879.75
2024-02-02T03:13:09.653Z,102876.88
2024-02-02T03:15:36.201Z,102869.47
2024-02-02T03:18:03.065Z,102870.75
2024-02-02T03:20:29.910Z,102865.63
2024-02-02T03:22:56.732Z,102864.06
2024-02-02T03:25:23.286Z,102854.94
2024-02-02T03:27:49.764Z,102847.63
2024-02-02T03:30:16.278Z,102853.31
2024-02-02T03:32:43.064Z,102842.06
2024-02-02T03:35:09.668Z,102846.72
2024-02-02T03:37:36.126Z,102822.78
2024-02-02T03:40:05.176Z,102831.34
2024-02-02T03:42:31.940Z,102813.78
2024-02-02T03:44:58.532Z,102806.25
2024-02-02T03:47:25.462Z,102799.28
2024-02-02T03:49:51.942Z,102792.06
2024-02-02T03:52:24.116Z,102797.72
2024-02-02T03:54:53.639Z,102791.25
2024-02-02T03:57:20.142Z,102799.53
2024-02-02T03:59:46.665Z,102794.22
2024-02-02T04:02:13.508Z,102799.81
2024-02-02T04:04:40.497Z,102790.59
2024-02-02T04:07:07.013Z,102791.59
2024-02-02T04:09:33.762Z,102796.84
2024-02-02T04:12:00.432Z,102791.03
2024-02-02T04:14:27.079Z,102783.97
2024-02-02T04:16:53.642Z,102781.03
2024-02-02T04:19:22.143Z,102765.72
2024-02-02T04:21:49.005Z,102762.06
2024-02-02T04:24:15.653Z,102741.78
2024-02-02T04:26:42.184Z,102731.69
2024-02-02T04:29:08.712Z,102714.78
2024-02-02T04:31:35.215Z,102720.34
2024-02-02T04:34:01.786Z,102715.03
2024-02-02T04:36:28.781Z,102712.03
2024-02-02T04:38:55.364Z,102719.72
2024-02-02T04:41:21.890Z,102712.53
2024-02-02T04:43:48.478Z,102701.31
2024-02-02T04:46:14.957Z,102709.13
2024-02-02T04:48:41.493Z,102687.63
2024-02-02T04:51:08.064Z,102710.88
2024-02-02T04:53:34.627Z,102717.19
2024-02-02T04:56:01.113Z,102728.81
2024-02-02T04:58:27.641Z,102669.84
2024-02-02T05:00:54.132Z,102716.78
2024-02-02T05:03:20.702Z,102700.59
2024-02-02T05:05:47.167Z,102698.69
2024-02-02T05:08:13.976Z,102701.41
2024-02-02T05:10:40.660Z,102689.94
2024-02-02T05:13:07.277Z,102681.63
2024-02-02T05:15:33.913Z,102686.84
2024-02-02T05:18:00.836Z,102694.31
2024-02-02T05:20:27.420Z,102685.31
2024-02-02T05:22:53.877Z,102680.06
2024-02-02T05:25:20.409Z,102678.44
2024-02-02T05:27:46.896Z,102671.91
2024-02-02T05:30:13.663Z,102681.38
2024-02-02T05:32:40.727Z,102668.31
2024-02-02T05:35:07.655Z,102656.03
2024-02-02T05:37:34.591Z,102654.66
2024-02-02T05:40:01.140Z,102645.56
2024-02-02T05:42:27.840Z,102633.59
2024-02-02T05:44:54.367Z,102663.22
2024-02-02T05:47:21.429Z,102655.03
2024-02-02T05:49:47.956Z,102653.97
2024-02-02T05:52:14.527Z,102654.09
2024-02-02T05:54:41.052Z,102655.06
2024-02-02T05:57:07.612Z,102658.94
2024-02-02T05:59:34.122Z,102622.34
2024-02-02T06:02:00.683Z,102664.22
2024-02-02T06:04:27.249Z,102665.31
2024-02-02T06:06:53.937Z,102666.88
2024-02-02T06:09:20.534Z,102675.13
2024-02-02T06:11:47.041Z,102680.38
2024-02-02T06:14:13.527Z,102646.59
2024-02-02T06:16:40.008Z,102668.25
2024-02-02T06:19:06.635Z,102669.56
2024-02-02T06:21:33.495Z,102665.16
2024-02-02T06:24:00.029Z,102662.94
2024-02-02T06:26:26.607Z,102670.09
2024-02-02T06:28:53.111Z,102661.94
2024-02-02T06:31:22.702Z,102660.31
2024-02-02T06:33:49.183Z,102654.75
2024-02-02T06:36:15.840Z,102658.19
2024-02-02T06:38:42.302Z,102652.78
2024-02-02T06:41:11.736Z,102660.81
2024-02-02T06:43:38.705Z,102657.69
2024-02-02T06:46:05.337Z,102664.84
2024-02-02T06:48:31.909Z,102659.91
2024-02-02T06:50:58.521Z,102642.84
2024-02-02T06:53:25.077Z,102644.50
2024-02-02T06:55:51.633Z,102649.41
2024-02-02T06:58:39.813Z,102639.44
2024-02-02T07:01:06.374Z,102637.56
2024-02-02T07:03:33.552Z,102644.97
2024-02-02T07:06:00.542Z,102616.84
2024-02-02T07:08:27.581Z,102648.22
2024-02-02T07:11:23.587Z,102643.63
2024-02-02T07:13:52.487Z,102640.09
2024-02-02T07:16:30.593Z,102649.13
2024-02-02T07:18:57.806Z,102621.97
2024-02-02T07:21:32.140Z,102641.09
2024-02-02T07:23:59.875Z,102625.03
2024-02-02T07:26:29.323Z,102634.75
2024-02-02T07:28:56.070Z,102630.00
2024-02-02T07:31:31.868Z,102646.38
2024-02-02T07:34:06.394Z,102635.88
2024-02-02T07:36:34.947Z,102581.81
2024-02-02T07:39:02.004Z,102587.00
2024-02-02T07:41:29.973Z,102637.06
2024-02-02T07:44:00.284Z,102630.94
2024-02-02T07:46:27.313Z,102632.66
2024-02-02T07:48:54.874Z,102611.41
2024-02-02T07:51:23.861Z,102628.09
2024-02-02T07:53:50.778Z,102625.41
2024-02-02T07:56:19.306Z,102587.56
2024-02-02T07:58:45.917Z,102617.56
2024-02-02T08:01:12.537Z,102619.56
2024-02-02T08:03:39.594Z,102609.31
2024-02-02T08:06:07.349Z,102596.53
2024-02-02T08:08:34.533Z,102607.50
2024-02-02T08:11:01.229Z,102591.41
2024-02-02T08:13:27.969Z,102599.34
2024-02-02T08:15:54.976Z,102597.41
2024-02-02T08:18:21.566Z,102599.81
2024-02-02T08:20:48.099Z,102594.72
2024-02-02T08:23:14.650Z,102596.75
2024-02-02T08:25:41.285Z,102591.19
2024-02-02T08:28:07.749Z,102583.25
2024-02-02T08:30:34.251Z,102588.13
2024-02-02T08:33:00.910Z,102579.09
2024-02-02T08:35:29.651Z,102582.75
2024-02-02T08:38:01.181Z,102574.47
2024-02-02T08:40:40.024Z,102575.91
2024-02-02T08:43:11.644Z,102559.31
2024-02-02T08:45:44.480Z,102566.28
2024-02-02T08:48:24.048Z,102575.06
2024-02-02T08:50:59.279Z,102566.13
2024-02-02T08:53:27.118Z,102558.59
2024-02-02T08:56:00.600Z,102553.19
2024-02-02T08:58:36.061Z,102551.03
2024-02-02T09:01:04.611Z,102522.03
2024-02-02T09:03:45.794Z,102543.00
2024-02-02T09:06:31.008Z,102544.34
2024-02-02T09:08:57.596Z,102544.34
2024-02-02T09:11:25.132Z,102538.53
2024-02-02T09:14:15.335Z,102535.91
2024-02-02T09:16:44.998Z,102527.97
2024-02-02T09:19:21.175Z,102542.19
2024-02-02T09:21:47.749Z,102538.09
2024-02-02T09:24:29.337Z,102541.81
2024-02-02T09:26:58.901Z,102545.66
2024-02-02T09:29:25.537Z,102540.16
2024-02-02T09:31:52.278Z,102548.41
2024-02-02T09:34:25.767Z,102541.44
2024-02-02T09:36:55.726Z,102548.84
2024-02-02T09:39:40.655Z,102544.63
2024-02-02T09:42:16.880Z,102539.81
2024-02-02T09:45:00.334Z,102551.97
2024-02-02T09:47:37.707Z,102558.19
2024-02-02T09:50:19.595Z,102563.16
2024-02-02T09:52:57.010Z,102557.97
2024-02-02T09:55:30.575Z,102561.00
2024-02-02T09:58:17.123Z,102522.94
2024-02-02T10:00:59.451Z,102551.69
2024-02-02T10:03:56.620Z,102545.78
2024-02-02T10:06:33.470Z,102540.09
2024-02-02T10:09:29.949Z,102537.28
2024-02-02T10:12:13.672Z,102553.72
2024-02-02T10:14:46.262Z,102553.22
2024-02-02T10:17:46.501Z,102563.31
2024-02-02T10:20:38.434Z,102569.69
2024-02-02T10:23:14.901Z,102563.88
2024-02-02T10:26:05.732Z,102569.56
2024-02-02T10:28:50.504Z,102565.63
2024-02-02T10:31:31.666Z,102564.00
2024-02-02T10:34:17.075Z,102557.44
2024-02-02T10:37:01.602Z,102549.50
2024-02-02T10:39:44.331Z,102567.25
2024-02-02T10:42:30.300Z,102556.94
2024-02-02T10:45:14.205Z,102555.41
2024-02-02T10:48:01.358Z,102548.03
2024-02-02T10:50:38.358Z,102535.34
2024-02-02T10:53:30.856Z,102543.03
2024-02-02T10:56:03.628Z,102527.81
2024-02-02T10:58:32.884Z,102521.94
2024-02-02T11:01:18.151Z,102529.09
2024-02-02T11:03:53.261Z,102518.88
2024-02-02T11:06:34.910Z,102533.88
2024-02-02T11:09:34.781Z,102491.41
2024-02-02T11:12:12.082Z,102514.09
2024-02-02T11:14:51.072Z,102503.75
2024-02-02T11:17:34.905Z,102472.69
2024-02-02T11:20:23.285Z,102510.41
2024-02-02T11:23:29.969Z,102504.69
2024-02-02T11:26:31.892Z,102509.22
2024-02-02T11:29:01.278Z,102502.78
2024-02-02T11:31:38.731Z,102499.94
2024-02-02T11:34:19.867Z,102496.97
2024-02-02T11:37:12.839Z,102497.38
2024-02-02T11:40:00.651Z,102476.88
2024-02-02T11:42:29.609Z,102478.69
2024-02-02T11:44:58.198Z,102480.84
2024-02-02T11:47:26.026Z,102454.19
2024-02-02T11:50:08.010Z,102465.34
2024-02-02T11:52:48.512Z,102455.59
2024-02-02T11:55:33.946Z,102450.34
2024-02-02T11:58:08.242Z,102455.72
2024-02-02T12:01:07.264Z,102442.00
2024-02-02T12:03:50.318Z,102446.97
2024-02-02T12:06:18.511Z,102454.88
2024-02-02T12:08:55.505Z,102438.44
2024-02-02T12:11:29.635Z,102440.91
2024-02-02T12:14:08.180Z,102425.19
2024-02-02T12:16:34.683Z,102428.16
2024-02-02T12:19:01.362Z,102438.75
2024-02-02T12:21:28.025Z,102441.28
2024-02-02T12:23:54.583Z,102436.47
2024-02-02T12:26:22.183Z,102419.19
2024-02-02T12:28:48.666Z,102428.81
2024-02-02T12:31:15.237Z,102439.50
2024-02-02T12:33:41.857Z,102448.38
2024-02-02T12:36:12.497Z,102446.09
2024-02-02T12:38:39.572Z,102433.78
2024-02-02T12:41:09.952Z,102430.53
2024-02-02T12:43:36.486Z,102430.00
2024-02-02T12:46:04.032Z,102423.72
2024-02-02T12:48:30.642Z,102437.91
2024-02-02T12:50:57.212Z,102426.56
2024-02-02T12:53:23.766Z,102424.75
2024-02-02T12:55:50.433Z,102434.19
2024-02-02T12:58:17.119Z,102421.31
2024-02-02T13:00:43.777Z,102423.41
2024-02-02T13:03:13.662Z,102420.31
2024-02-02T13:05:40.482Z,102409.69
2024-02-02T13:08:09.198Z,102418.88
2024-02-02T13:10:36.452Z,102422.84
2024-02-02T13:13:18.387Z,102431.91
2024-02-02T13:15:44.957Z,102417.75
2024-02-02T13:18:14.054Z,102412.94
2024-02-02T13:20:45.881Z,102418.19
2024-02-02T13:23:26.066Z,102425.09
2024-02-02T13:25:54.294Z,102415.34
2024-02-02T13:28:21.082Z,102410.69
2024-02-02T13:30:59.276Z,102390.28
2024-02-02T13:33:33.840Z,102403.16
2024-02-02T13:36:02.841Z,102406.72
2024-02-02T13:38:32.420Z,102396.50
2024-02-02T13:41:00.542Z,102397.06
2024-02-02T13:43:28.845Z,102387.88
2024-02-02T13:46:06.500Z,102387.03
2024-02-02T13:48:37.701Z,102396.78
2024-02-02T13:51:06.003Z,102386.88
2024-02-02T13:53:32.712Z,102387.44
2024-02-02T13:56:04.634Z,102386.84
2024-02-02T13:58:38.271Z,102404.38
2024-02-02T14:01:16.022Z,102405.41
2024-02-02T14:03:42.557Z,102407.97
2024-02-02T14:06:09.716Z,102407.66
2024-02-02T14:08:43.471Z,102399.63
2024-02-02T14:11:10.100Z,102404.97
2024-02-02T14:13:36.802Z,102399.72
2024-02-02T14:16:03.524Z,102401.25
2024-02-02T14:18:30.781Z,102399.19
2024-02-02T14:20:57.380Z,102415.19
2024-02-02T14:23:24.164Z,102412.88
2024-02-02T14:25:51.118Z,102380.47
2024-02-02T14:28:19.129Z,102383.28
2024-02-02T14:30:48.927Z,102406.22
2024-02-02T14:33:25.063Z,102380.56
2024-02-02T14:35:53.082Z,102406.81
2024-02-02T14:38:19.652Z,102412.44
2024-02-02T14:40:46.114Z,102387.31
2024-02-02T14:43:12.633Z,102410.06
2024-02-02T14:45:39.236Z,102406.22
2024-02-02T14:48:06.185Z,102413.84
2024-02-02T14:50:34.719Z,102399.72
2024-02-02T14:53:01.206Z,102402.34
2024-02-02T14:55:28.594Z,102410.31
2024-02-02T14:57:58.232Z,102381.13
2024-02-02T15:00:34.522Z,102393.47
2024-02-02T15:03:05.041Z,102403.94
2024-02-02T15:05:31.614Z,102402.25
2024-02-02T15:07:58.232Z,102399.25
2024-02-02T15:10:24.934Z,102413.13
2024-02-02T15:12:51.554Z,102409.28
2024-02-02T15:15:18.146Z,102412.56
2024-02-02T15:17:44.674Z,102411.59
2024-02-02T15:20:11.894Z,102394.22
2024-02-02T15:22:38.759Z,102408.91
2024-02-02T15:25:05.938Z,102379.38
2024-02-02T15:27:35.566Z,102410.75
2024-02-02T15:30:04.472Z,102412.81
2024-02-02T15:32:31.399Z,102390.50
2024-02-02T15:34:58.505Z,102387.09
2024-02-02T15:37:27.009Z,102400.41
2024-02-02T15:39:58.299Z,102395.81
2024-02-02T15:42:26.415Z,102409.31
2024-02-02T15:44:54.484Z,102415.13
2024-02-02T15:47:21.414Z,102414.28
2024-02-02T15:49:49.607Z,102387.94
2024-02-02T15:52:16.391Z,102400.16
2024-02-02T15:54:43.723Z,102408.78
2024-02-02T15:57:11.260Z,102395.88
2024-02-02T15:59:38.642Z,102408.94
2024-02-02T16:02:05.626Z,102414.88
2024-02-02T16:04:32.958Z,102413.97
2024-02-02T16:07:05.401Z,102413.59
2024-02-02T16:09:40.276Z,102413.91
2024-02-02T16:12:08.748Z,102416.16
2024-02-02T16:14:35.509Z,102416.16
2024-02-02T16:17:02.695Z,102381.34
2024-02-02T16:19:30.121Z,102392.94
2024-02-02T16:21:56.990Z,102413.47
2024-02-02T16:24:23.457Z,102403.88
2024-02-02T16:26:50.029Z,102392.81
2024-02-02T16:29:16.799Z,102390.84
2024-02-02T16:31:44.992Z,102365.91
2024-02-02T16:34:12.127Z,102399.22
2024-02-02T16:36:43.569Z,102408.56
2024-02-02T16:39:14.753Z,102405.56
2024-02-02T16:41:42.507Z,102408.97
2024-02-02T16:44:09.059Z,102412.38
2024-02-02T16:46:43.762Z,102411.81
2024-02-02T16:49:11.427Z,102417.75
2024-02-02T16:51:38.246Z,102414.91
2024-02-02T16:54:08.597Z,102427.94
2024-02-02T16:56:35.611Z,102424.13
2024-02-02T16:59:02.550Z,102409.53
2024-02-02T17:01:30.126Z,102406.28
2024-02-02T17:03:57.350Z,102407.81
2024-02-02T17:06:25.145Z,102407.56
2024-02-02T17:08:52.627Z,102408.13
2024-02-02T17:11:19.259Z,102419.16
2024-02-02T17:13:45.732Z,102418.03
2024-02-02T17:16:12.231Z,102421.03
2024-02-02T17:18:42.236Z,102422.59
2024-02-02T17:21:09.429Z,102411.41
2024-02-02T17:23:36.624Z,102411.81
2024-02-02T17:26:03.657Z,102402.91
2024-02-02T17:28:30.194Z,102376.81
2024-02-02T17:30:57.363Z,102405.28
2024-02-02T17:33:24.263Z,102418.31
2024-02-02T17:35:51.095Z,102424.00
2024-02-02T17:38:17.862Z,102407.56
2024-02-02T17:40:47.070Z,102434.50
2024-02-02T17:43:13.968Z,102429.25
2024-02-02T17:45:40.595Z,102437.75
2024-02-02T17:48:07.500Z,102426.25
2024-02-02T17:50:34.211Z,102434.78
2024-02-02T17:53:00.808Z,102438.44
2024-02-02T17:55:27.342Z,102423.34
2024-02-02T17:57:53.898Z,102431.78
2024-02-02T18:00:20.925Z,102435.94
2024-02-02T18:02:47.959Z,102420.91
2024-02-02T18:05:14.487Z,102424.31
2024-02-02T18:07:47.515Z,102426.00
2024-02-02T18:10:15.197Z,102428.72
2024-02-02T18:12:41.905Z,102422.84
2024-02-02T18:15:08.995Z,102422.91
2024-02-02T18:17:35.852Z,102424.56
2024-02-02T18:20:02.561Z,102426.28
2024-02-02T18:22:29.286Z,102428.56
2024-02-02T18:24:55.745Z,102421.34
2024-02-02T18:27:22.250Z,102431.38
2024-02-02T18:29:53.002Z,102430.09
2024-02-02T18:32:20.848Z,102422.03
2024-02-02T18:34:48.634Z,102424.03
2024-02-02T18:37:15.401Z,102413.53
2024-02-02T18:39:42.543Z,102423.72
2024-02-02T18:42:09.421Z,102417.78
2024-02-02T18:44:35.921Z,102432.81
2024-02-02T18:47:02.643Z,102417.19
2024-02-02T18:49:29.278Z,102416.09
2024-02-02T18:51:55.819Z,102381.94
2024-02-02T18:54:22.912Z,102410.09
2024-02-02T18:56:50.042Z,102422.88
2024-02-02T18:59:16.863Z,102433.66
2024-02-02T19:01:43.398Z,102428.28
2024-02-02T19:04:12.179Z,102441.88
2024-02-02T19:06:42.366Z,102399.94
2024-02-02T19:09:09.815Z,102412.00
2024-02-02T19:11:36.792Z,102406.47
2024-02-02T19:14:04.149Z,102452.50
2024-02-02T19:16:30.706Z,102440.31
2024-02-02T19:18:57.368Z,102413.81
2024-02-02T19:21:31.627Z,102433.22
2024-02-02T19:23:59.948Z,102421.72
2024-02-02T19:26:26.430Z,102432.50
2024-02-02T19:28:53.167Z,102427.94
2024-02-02T19:31:24.944Z,102424.25
2024-02-02T19:33:52.343Z,102412.97
2024-02-02T19:36:29.458Z,102420.28
2024-02-02T19:38:57.887Z,102412.78
2024-02-02T19:41:26.216Z,102416.88
2024-02-02T19:43:53.628Z,102405.06
2024-02-02T19:46:21.199Z,102413.91
2024-02-02T19:48:49.157Z,102423.69
2024-02-02T19:51:17.027Z,102417.59
2024-02-02T19:53:43.607Z,102419.41
2024-02-02T19:56:10.892Z,102434.72
2024-02-02T19:58:38.740Z,102436.59
2024-02-02T20:01:05.635Z,102419.44
2024-02-02T20:03:32.774Z,102388.84
2024-02-02T20:06:00.967Z,102415.75
2024-02-02T20:08:27.464Z,102416.47
2024-02-02T20:10:53.914Z,102403.00
2024-02-02T20:13:22.400Z,102415.59
2024-02-02T20:15:49.115Z,102371.13
2024-02-02T20:18:15.907Z,102402.66
2024-02-02T20:20:42.484Z,102419.00
2024-02-02T20:23:08.986Z,102370.69
2024-02-02T20:25:35.456Z,102411.44
2024-02-02T20:28:02.546Z,102414.72
2024-02-02T20:30:29.879Z,102419.38
2024-02-02T20:32:56.420Z,102415.53
2024-02-02T20:35:23.025Z,102409.75
2024-02-02T20:37:49.600Z,102404.06
2024-02-02T20:40:18.430Z,102409.03
2024-02-02T20:42:44.984Z,102411.94
2024-02-02T20:45:12.064Z,102416.59
2024-02-02T20:47:38.655Z,102412.06
2024-02-02T20:50:05.527Z,102405.28
2024-02-02T20:52:32.020Z,102397.03
2024-02-02T20:55:00.208Z,102390.38
2024-02-02T20:57:26.767Z,102399.19
2024-02-02T20:59:54.222Z,102403.75
2024-02-02T21:02:20.880Z,102402.88
2024-02-02T21:04:47.588Z,102407.69
2024-02-02T21:07:14.259Z,102411.25
2024-02-02T21:09:40.973Z,102392.94
2024-02-02T21:12:08.300Z,102395.50
2024-02-02T21:14:34.919Z,102397.97
2024-02-02T21:17:01.542Z,102389.81
2024-02-02T21:19:32.101Z,102386.16
2024-02-02T21:21:58.764Z,102390.25
2024-02-02T21:24:25.292Z,102377.78
2024-02-02T21:26:51.774Z,102385.56
2024-02-02T21:29:18.229Z,102399.47
2024-02-02T21:31:45.107Z,102396.22
2024-02-02T21:34:11.736Z,102387.56
2024-02-02T21:36:38.383Z,102388.81
2024-02-02T21:39:05.030Z,102387.56
2024-02-02T21:41:32.892Z,102392.81
2024-02-02T21:43:59.346Z,102386.84
2024-02-02T21:46:25.801Z,102388.81
2024-02-02T21:48:52.408Z,102379.16
2024-02-02T21:51:19.033Z,102354.59
2024-02-02T21:53:45.531Z,102339.22
2024-02-02T21:56:12.120Z,102374.34
2024-02-02T21:58:38.580Z,102382.31
2024-02-02T22:01:05.237Z,102378.00
2024-02-02T22:03:31.976Z,102385.50
2024-02-02T22:05:58.653Z,102384.56
2024-02-02T22:08:25.110Z,102375.75
2024-02-02T22:10:51.565Z,102336.69
2024-02-02T22:13:18.159Z,102364.13
2024-02-02T22:15:44.939Z,102334.44
2024-02-02T22:18:11.926Z,102376.19
2024-02-02T22:20:38.545Z,102381.72
2024-02-02T22:23:05.768Z,102384.28
2024-02-02T22:25:32.863Z,102372.75
2024-02-02T22:27:59.963Z,102376.34
2024-02-02T22:30:26.639Z,102370.09
2024-02-02T22:32:53.188Z,102388.50
2024-02-02T22:35:19.964Z,102372.34
2024-02-02T22:37:46.559Z,102364.97
2024-02-02T22:40:13.283Z,102367.34
2024-02-02T22:42:39.855Z,102339.22
2024-02-02T22:45:06.764Z,102368.91
2024-02-02T22:47:33.408Z,102362.47
2024-02-02T22:50:00.019Z,102367.69
2024-02-02T22:52:26.509Z,102378.38
2024-02-02T22:54:53.166Z,102373.19
2024-02-02T22:57:19.667Z,102329.34
2024-02-02T22:59:53.198Z,102363.00
2024-02-02T23:02:23.707Z,102372.59
2024-02-02T23:04:50.242Z,102363.53
2024-02-02T23:07:16.857Z,102333.56
2024-02-02T23:09:43.498Z,102368.78
2024-02-02T23:12:10.739Z,102373.19
2024-02-02T23:14:38.453Z,102366.34
2024-02-02T23:17:04.936Z,102330.72
2024-02-02T23:19:31.535Z,102349.13
2024-02-02T23:21:58.265Z,102359.44
2024-02-02T23:24:25.317Z,102353.63
2024-02-02T23:26:52.075Z,102359.00
2024-02-02T23:29:18.649Z,102357.41
2024-02-02T23:31:45.120Z,102313.97
2024-02-02T23:34:11.655Z,102354.53
2024-02-02T23:36:38.256Z,102335.78
2024-02-02T23:39:07.986Z,102316.41
2024-02-02T23:41:34.480Z,102351.63
2024-02-02T23:44:00.932Z,102356.84
2024-02-02T23:46:27.410Z,102355.44
2024-02-02T23:48:54.012Z,102367.34
2024-02-02T23:51:20.545Z,102355.84
2024-02-02T23:53:47.055Z,102354.44
2024-02-02T23:56:13.546Z,102354.25
2024-02-02T23:58:40.048Z,102357.53
